sensor_id;sensor_type;location;lat;lon;timestamp;pressure;altitude;pressure_sealevel;temperature;humidity
67013;BME280;53926;47.406;19.188;2023-03-16T00:02:05;100287.34;;;3.02;57.94
67013;BME280;53926;47.406;19.188;2023-03-16T00:04:33;100288.44;;;2.83;57.67
67013;BME280;53926;47.406;19.188;2023-03-16T00:07:08;100287.03;;;2.55;60.67
67013;BME280;53926;47.406;19.188;2023-03-16T00:09:37;100285.88;;;2.49;59.61
67013;BME280;53926;47.406;19.188;2023-03-16T00:12:17;100282.53;;;2.48;59.63
67013;BME280;53926;47.406;19.188;2023-03-16T00:14:47;100297.47;;;2.53;59.26
67013;BME280;53926;47.406;19.188;2023-03-16T00:17:16;100299.03;;;2.38;60.12
67013;BME280;53926;47.406;19.188;2023-03-16T00:19:51;100299.97;;;2.37;59.99
67013;BME280;53926;47.406;19.188;2023-03-16T00:22:25;100299.03;;;2.38;59.45
67013;BME280;53926;47.406;19.188;2023-03-16T00:24:52;100298.34;;;2.36;59.69
67013;BME280;53926;47.406;19.188;2023-03-16T00:27:20;100306.59;;;2.13;60.85
67013;BME280;53926;47.406;19.188;2023-03-16T00:29:49;100307.59;;;1.94;61.71
67013;BME280;53926;47.406;19.188;2023-03-16T00:32:41;100303.44;;;1.93;62.24
67013;BME280;53926;47.406;19.188;2023-03-16T00:35:08;100303.00;;;1.79;63.46
67013;BME280;53926;47.406;19.188;2023-03-16T00:37:35;100307.41;;;1.87;62.31
67013;BME280;53926;47.406;19.188;2023-03-16T00:40:03;100309.03;;;1.88;62.23
67013;BME280;53926;47.406;19.188;2023-03-16T00:42:31;100316.88;;;1.87;62.54
67013;BME280;53926;47.406;19.188;2023-03-16T00:44:59;100319.59;;;1.85;63.12
67013;BME280;53926;47.406;19.188;2023-03-16T00:47:30;100315.88;;;1.61;64.92
67013;BME280;53926;47.406;19.188;2023-03-16T00:49:59;100318.31;;;1.45;66.31
67013;BME280;53926;47.406;19.188;2023-03-16T00:52:27;100323.56;;;1.25;66.94
67013;BME280;53926;47.406;19.188;2023-03-16T00:54:54;100321.16;;;1.42;66.13
67013;BME280;53926;47.406;19.188;2023-03-16T00:57:23;100320.00;;;1.36;66.92
67013;BME280;53926;47.406;19.188;2023-03-16T00:59:50;100330.41;;;0.89;69.28
67013;BME280;53926;47.406;19.188;2023-03-16T01:02:19;100337.66;;;0.66;71.12
67013;BME280;53926;47.406;19.188;2023-03-16T01:04:50;100339.53;;;0.74;71.55
67013;BME280;53926;47.406;19.188;2023-03-16T01:07:18;100331.44;;;0.41;72.66
67013;BME280;53926;47.406;19.188;2023-03-16T01:09:45;100334.47;;;0.26;74.22
67013;BME280;53926;47.406;19.188;2023-03-16T01:12:16;100331.34;;;0.23;75.62
67013;BME280;53926;47.406;19.188;2023-03-16T01:14:43;100342.88;;;-0.11;77.47
67013;BME280;53926;47.406;19.188;2023-03-16T01:17:14;100330.75;;;-0.19;78.42
67013;BME280;53926;47.406;19.188;2023-03-16T01:19:42;100327.53;;;-0.50;80.40
67013;BME280;53926;47.406;19.188;2023-03-16T01:22:10;100338.97;;;-0.54;80.90
67013;BME280;53926;47.406;19.188;2023-03-16T01:24:38;100340.91;;;-1.06;84.12
67013;BME280;53926;47.406;19.188;2023-03-16T01:27:06;100338.84;;;-1.22;86.71
67013;BME280;53926;47.406;19.188;2023-03-16T01:29:33;100339.88;;;-1.35;89.23
67013;BME280;53926;47.406;19.188;2023-03-16T01:32:01;100350.16;;;-1.56;90.21
67013;BME280;53926;47.406;19.188;2023-03-16T01:34:30;100348.63;;;-1.89;91.90
67013;BME280;53926;47.406;19.188;2023-03-16T01:36:57;100348.00;;;-1.82;93.85
67013;BME280;53926;47.406;19.188;2023-03-16T01:39:24;100348.00;;;-2.03;95.11
67013;BME280;53926;47.406;19.188;2023-03-16T01:41:51;100341.03;;;-2.01;95.94
67013;BME280;53926;47.406;19.188;2023-03-16T01:44:22;100347.50;;;-2.18;96.48
67013;BME280;53926;47.406;19.188;2023-03-16T01:46:53;100349.91;;;-2.37;97.30
67013;BME280;53926;47.406;19.188;2023-03-16T01:49:28;100346.03;;;-2.53;98.29
67013;BME280;53926;47.406;19.188;2023-03-16T01:52:07;100348.47;;;-2.30;98.68
67013;BME280;53926;47.406;19.188;2023-03-16T01:54:41;100353.94;;;-2.35;99.31
67013;BME280;53926;47.406;19.188;2023-03-16T01:57:17;100361.06;;;-2.17;98.29
67013;BME280;53926;47.406;19.188;2023-03-16T01:59:50;100353.56;;;-2.19;98.52
67013;BME280;53926;47.406;19.188;2023-03-16T02:02:24;100359.37;;;-2.07;97.69
67013;BME280;53926;47.406;19.188;2023-03-16T02:05:05;100362.06;;;-1.87;97.06
67013;BME280;53926;47.406;19.188;2023-03-16T02:07:40;100367.53;;;-2.13;97.68
67013;BME280;53926;47.406;19.188;2023-03-16T02:10:09;100367.84;;;-2.27;99.05
67013;BME280;53926;47.406;19.188;2023-03-16T02:12:39;100373.44;;;-2.34;100.00
67013;BME280;53926;47.406;19.188;2023-03-16T02:15:10;100376.69;;;-2.43;100.00
67013;BME280;53926;47.406;19.188;2023-03-16T02:17:37;100381.84;;;-2.65;100.00
67013;BME280;53926;47.406;19.188;2023-03-16T02:20:20;100378.16;;;-2.73;100.00
67013;BME280;53926;47.406;19.188;2023-03-16T02:22:51;100392.87;;;-2.76;100.00
67013;BME280;53926;47.406;19.188;2023-03-16T02:25:30;100394.16;;;-2.82;100.00
67013;BME280;53926;47.406;19.188;2023-03-16T02:28:12;100385.38;;;-2.89;100.00
67013;BME280;53926;47.406;19.188;2023-03-16T02:30:41;100392.56;;;-2.83;100.00
67013;BME280;53926;47.406;19.188;2023-03-16T02:33:08;100394.75;;;-2.90;100.00
67013;BME280;53926;47.406;19.188;2023-03-16T02:35:34;100399.06;;;-3.01;100.00
67013;BME280;53926;47.406;19.188;2023-03-16T02:38:01;100409.25;;;-3.01;100.00
67013;BME280;53926;47.406;19.188;2023-03-16T02:40:29;100407.41;;;-3.11;100.00
67013;BME280;53926;47.406;19.188;2023-03-16T02:43:03;100410.19;;;-3.14;100.00
67013;BME280;53926;47.406;19.188;2023-03-16T02:48:15;100419.91;;;-3.08;100.00
67013;BME280;53926;47.406;19.188;2023-03-16T02:50:46;100416.66;;;-3.32;100.00
67013;BME280;53926;47.406;19.188;2023-03-16T02:53:14;100423.34;;;-3.31;100.00
67013;BME280;53926;47.406;19.188;2023-03-16T02:55:42;100420.13;;;-3.11;100.00
67013;BME280;53926;47.406;19.188;2023-03-16T02:58:09;100425.22;;;-2.88;100.00
67013;BME280;53926;47.406;19.188;2023-03-16T03:00:36;100426.00;;;-2.65;100.00
67013;BME280;53926;47.406;19.188;2023-03-16T03:03:04;100424.34;;;-2.43;100.00
67013;BME280;53926;47.406;19.188;2023-03-16T03:05:33;100431.84;;;-2.30;100.00
67013;BME280;53926;47.406;19.188;2023-03-16T03:07:59;100441.25;;;-1.99;100.00
67013;BME280;53926;47.406;19.188;2023-03-16T03:10:26;100431.34;;;-1.92;100.00
67013;BME280;53926;47.406;19.188;2023-03-16T03:12:53;100437.22;;;-1.80;100.00
67013;BME280;53926;47.406;19.188;2023-03-16T03:15:20;100436.25;;;-1.68;99.86
67013;BME280;53926;47.406;19.188;2023-03-16T03:17:47;100440.91;;;-1.52;98.50
67013;BME280;53926;47.406;19.188;2023-03-16T03:20:13;100443.87;;;-1.26;97.03
67013;BME280;53926;47.406;19.188;2023-03-16T03:22:45;100451.16;;;-1.21;96.16
67013;BME280;53926;47.406;19.188;2023-03-16T03:25:15;100446.84;;;-1.20;95.80
67013;BME280;53926;47.406;19.188;2023-03-16T03:27:44;100452.47;;;-0.96;94.87
67013;BME280;53926;47.406;19.188;2023-03-16T03:30:14;100456.00;;;-0.87;94.20
67013;BME280;53926;47.406;19.188;2023-03-16T03:32:42;100466.69;;;-0.72;93.40
67013;BME280;53926;47.406;19.188;2023-03-16T03:35:11;100468.41;;;-0.82;93.23
67013;BME280;53926;47.406;19.188;2023-03-16T03:37:39;100461.75;;;-0.95;94.35
67013;BME280;53926;47.406;19.188;2023-03-16T03:40:10;100470.97;;;-0.82;94.03
67013;BME280;53926;47.406;19.188;2023-03-16T03:42:38;100478.63;;;-0.82;93.85
67013;BME280;53926;47.406;19.188;2023-03-16T03:45:08;100474.50;;;-0.74;93.26
67013;BME280;53926;47.406;19.188;2023-03-16T03:47:39;100485.63;;;-0.44;91.36
67013;BME280;53926;47.406;19.188;2023-03-16T03:50:06;100476.34;;;-0.76;92.31
67013;BME280;53926;47.406;19.188;2023-03-16T03:52:33;100477.25;;;-0.86;93.52
67013;BME280;53926;47.406;19.188;2023-03-16T03:55:00;100488.97;;;-0.84;94.14
67013;BME280;53926;47.406;19.188;2023-03-16T03:57:27;100482.88;;;-0.93;94.43
67013;BME280;53926;47.406;19.188;2023-03-16T03:59:53;100488.94;;;-0.94;94.87
67013;BME280;53926;47.406;19.188;2023-03-16T04:02:20;100496.69;;;-1.05;95.04
67013;BME280;53926;47.406;19.188;2023-03-16T04:04:47;100491.63;;;-0.95;94.93
67013;BME280;53926;47.406;19.188;2023-03-16T04:07:13;100495.53;;;-0.91;94.87
67013;BME280;53926;47.406;19.188;2023-03-16T04:09:40;100500.50;;;-0.99;95.44
67013;BME280;53926;47.406;19.188;2023-03-16T04:12:07;100500.34;;;-0.98;94.61
67013;BME280;53926;47.406;19.188;2023-03-16T04:14:34;100507.66;;;-1.14;96.17
67013;BME280;53926;47.406;19.188;2023-03-16T04:17:00;100507.34;;;-1.42;97.74
67013;BME280;53926;47.406;19.188;2023-03-16T04:19:27;100513.09;;;-1.50;98.13
67013;BME280;53926;47.406;19.188;2023-03-16T04:21:54;100517.03;;;-1.46;98.32
67013;BME280;53926;47.406;19.188;2023-03-16T04:24:20;100521.34;;;-1.78;100.00
67013;BME280;53926;47.406;19.188;2023-03-16T04:26:48;100517.94;;;-1.68;100.00
67013;BME280;53926;47.406;19.188;2023-03-16T04:29:15;100526.09;;;-1.74;100.00
67013;BME280;53926;47.406;19.188;2023-03-16T04:31:45;100524.03;;;-1.80;100.00
67013;BME280;53926;47.406;19.188;2023-03-16T04:34:12;100524.75;;;-1.57;100.00
67013;BME280;53926;47.406;19.188;2023-03-16T04:36:39;100527.06;;;-1.54;100.00
67013;BME280;53926;47.406;19.188;2023-03-16T04:39:07;100530.78;;;-1.90;100.00
67013;BME280;53926;47.406;19.188;2023-03-16T04:41:35;100538.56;;;-1.92;100.00
67013;BME280;53926;47.406;19.188;2023-03-16T04:44:01;100537.47;;;-2.22;100.00
67013;BME280;53926;47.406;19.188;2023-03-16T04:46:30;100533.19;;;-2.44;100.00
67013;BME280;53926;47.406;19.188;2023-03-16T04:48:57;100534.56;;;-2.62;100.00
67013;BME280;53926;47.406;19.188;2023-03-16T04:51:25;100538.16;;;-2.88;100.00
67013;BME280;53926;47.406;19.188;2023-03-16T04:53:52;100544.84;;;-3.09;100.00
67013;BME280;53926;47.406;19.188;2023-03-16T04:56:21;100551.72;;;-3.34;100.00
67013;BME280;53926;47.406;19.188;2023-03-16T04:58:49;100549.28;;;-3.35;100.00
67013;BME280;53926;47.406;19.188;2023-03-16T05:01:16;100560.13;;;-3.45;100.00
67013;BME280;53926;47.406;19.188;2023-03-16T05:03:44;100555.69;;;-3.54;100.00
67013;BME280;53926;47.406;19.188;2023-03-16T05:06:11;100569.69;;;-3.48;100.00
67013;BME280;53926;47.406;19.188;2023-03-16T05:08:38;100566.78;;;-3.55;100.00
67013;BME280;53926;47.406;19.188;2023-03-16T05:11:04;100574.28;;;-3.65;100.00
67013;BME280;53926;47.406;19.188;2023-03-16T05:13:31;100569.00;;;-3.50;100.00
67013;BME280;53926;47.406;19.188;2023-03-16T05:15:58;100561.59;;;-3.78;100.00
67013;BME280;53926;47.406;19.188;2023-03-16T05:18:25;100571.34;;;-3.71;100.00
67013;BME280;53926;47.406;19.188;2023-03-16T05:20:53;100574.19;;;-3.63;100.00
67013;BME280;53926;47.406;19.188;2023-03-16T05:23:22;100578.09;;;-3.59;100.00
67013;BME280;53926;47.406;19.188;2023-03-16T05:25:51;100577.41;;;-3.37;100.00
67013;BME280;53926;47.406;19.188;2023-03-16T05:28:18;100589.16;;;-3.23;100.00
67013;BME280;53926;47.406;19.188;2023-03-16T05:30:45;100585.75;;;-3.35;100.00
67013;BME280;53926;47.406;19.188;2023-03-16T05:33:11;100583.78;;;-3.31;100.00
67013;BME280;53926;47.406;19.188;2023-03-16T05:35:38;100586.09;;;-3.28;100.00
67013;BME280;53926;47.406;19.188;2023-03-16T05:38:07;100579.66;;;-3.21;100.00
67013;BME280;53926;47.406;19.188;2023-03-16T05:40:35;100584.09;;;-3.00;100.00
67013;BME280;53926;47.406;19.188;2023-03-16T05:43:05;100587.62;;;-2.79;100.00
67013;BME280;53926;47.406;19.188;2023-03-16T05:45:31;100592.44;;;-2.40;100.00
67013;BME280;53926;47.406;19.188;2023-03-16T05:47:59;100595.44;;;-2.46;100.00
67013;BME280;53926;47.406;19.188;2023-03-16T05:50:25;100589.25;;;-2.10;100.00
67013;BME280;53926;47.406;19.188;2023-03-16T05:52:52;100589.66;;;-1.71;100.00
67013;BME280;53926;47.406;19.188;2023-03-16T05:55:19;100600.56;;;-1.69;100.00
67013;BME280;53926;47.406;19.188;2023-03-16T05:57:46;100601.34;;;-1.24;100.00
67013;BME280;53926;47.406;19.188;2023-03-16T06:00:13;100600.28;;;-1.01;100.00
67013;BME280;53926;47.406;19.188;2023-03-16T06:02:42;100598.66;;;-0.60;100.00
67013;BME280;53926;47.406;19.188;2023-03-16T06:05:09;100601.78;;;-0.15;100.00
67013;BME280;53926;47.406;19.188;2023-03-16T06:07:36;100604.72;;;0.11;98.53
67013;BME280;53926;47.406;19.188;2023-03-16T06:10:04;100608.38;;;0.38;96.31
67013;BME280;53926;47.406;19.188;2023-03-16T06:12:32;100609.34;;;0.56;95.13
67013;BME280;53926;47.406;19.188;2023-03-16T06:15:00;100610.56;;;0.62;94.72
67013;BME280;53926;47.406;19.188;2023-03-16T06:17:27;100611.09;;;0.85;93.77
67013;BME280;53926;47.406;19.188;2023-03-16T06:19:54;100620.63;;;1.12;90.98
67013;BME280;53926;47.406;19.188;2023-03-16T06:22:21;100618.28;;;1.38;88.79
67013;BME280;53926;47.406;19.188;2023-03-16T06:24:51;100624.28;;;1.67;88.21
67013;BME280;53926;47.406;19.188;2023-03-16T06:27:18;100621.31;;;1.99;85.01
67013;BME280;53926;47.406;19.188;2023-03-16T06:29:46;100622.88;;;2.10;84.81
67013;BME280;53926;47.406;19.188;2023-03-16T06:32:13;100642.28;;;2.40;81.95
67013;BME280;53926;47.406;19.188;2023-03-16T06:34:42;100645.81;;;2.57;81.57
67013;BME280;53926;47.406;19.188;2023-03-16T06:37:08;100649.28;;;2.84;78.25
67013;BME280;53926;47.406;19.188;2023-03-16T06:39:35;100652.22;;;3.33;77.98
67013;BME280;53926;47.406;19.188;2023-03-16T06:42:02;100653.66;;;4.56;69.23
67013;BME280;53926;47.406;19.188;2023-03-16T06:44:30;100652.38;;;5.34;62.26
67013;BME280;53926;47.406;19.188;2023-03-16T06:46:57;100661.56;;;5.45;62.63
67013;BME280;53926;47.406;19.188;2023-03-16T06:49:24;100657.69;;;5.32;59.98
67013;BME280;53926;47.406;19.188;2023-03-16T06:51:50;100668.53;;;6.00;58.47
67013;BME280;53926;47.406;19.188;2023-03-16T06:54:17;100666.72;;;5.53;58.33
67013;BME280;53926;47.406;19.188;2023-03-16T06:56:43;100679.34;;;6.04;57.88
67013;BME280;53926;47.406;19.188;2023-03-16T06:59:11;100675.00;;;6.59;55.66
67013;BME280;53926;47.406;19.188;2023-03-16T07:01:38;100683.44;;;7.37;51.78
67013;BME280;53926;47.406;19.188;2023-03-16T07:04:05;100679.84;;;6.62;51.84
67013;BME280;53926;47.406;19.188;2023-03-16T07:06:31;100676.22;;;7.62;51.14
67013;BME280;53926;47.406;19.188;2023-03-16T07:08:58;100680.81;;;7.75;49.54
67013;BME280;53926;47.406;19.188;2023-03-16T07:11:26;100675.97;;;8.97;45.59
67013;BME280;53926;47.406;19.188;2023-03-16T07:13:53;100681.81;;;9.69;42.64
67013;BME280;53926;47.406;19.188;2023-03-16T07:16:20;100685.56;;;10.01;42.52
67013;BME280;53926;47.406;19.188;2023-03-16T07:18:47;100685.97;;;9.28;43.60
67013;BME280;53926;47.406;19.188;2023-03-16T07:21:14;100685.50;;;9.18;45.01
67013;BME280;53926;47.406;19.188;2023-03-16T07:23:40;100684.50;;;9.47;40.31
67013;BME280;53926;47.406;19.188;2023-03-16T07:26:07;100697.00;;;9.08;43.67
67013;BME280;53926;47.406;19.188;2023-03-16T07:28:34;100692.22;;;10.10;40.95
67013;BME280;53926;47.406;19.188;2023-03-16T07:31:00;100697.31;;;9.83;41.38
67013;BME280;53926;47.406;19.188;2023-03-16T07:33:31;100698.81;;;8.65;42.01
67013;BME280;53926;47.406;19.188;2023-03-16T07:35:58;100698.41;;;8.83;40.61
67013;BME280;53926;47.406;19.188;2023-03-16T07:38:25;100698.09;;;9.77;39.71
67013;BME280;53926;47.406;19.188;2023-03-16T07:40:52;100706.00;;;9.06;38.99
67013;BME280;53926;47.406;19.188;2023-03-16T07:43:18;100705.28;;;8.90;39.99
67013;BME280;53926;47.406;19.188;2023-03-16T07:45:49;100702.34;;;9.00;39.15
67013;BME280;53926;47.406;19.188;2023-03-16T07:48:17;100700.00;;;9.62;38.17
67013;BME280;53926;47.406;19.188;2023-03-16T07:50:46;100716.31;;;9.49;39.33
67013;BME280;53926;47.406;19.188;2023-03-16T07:53:13;100712.00;;;10.53;37.29
67013;BME280;53926;47.406;19.188;2023-03-16T07:55:42;100717.88;;;11.62;34.62
67013;BME280;53926;47.406;19.188;2023-03-16T07:58:09;100716.13;;;11.29;35.46
67013;BME280;53926;47.406;19.188;2023-03-16T08:00:37;100708.63;;;11.73;34.73
67013;BME280;53926;47.406;19.188;2023-03-16T08:03:04;100719.50;;;11.09;34.49
67013;BME280;53926;47.406;19.188;2023-03-16T08:05:31;100720.66;;;10.12;35.82
67013;BME280;53926;47.406;19.188;2023-03-16T08:07:58;100719.19;;;9.61;39.00
67013;BME280;53926;47.406;19.188;2023-03-16T08:10:25;100721.09;;;10.77;35.09
67013;BME280;53926;47.406;19.188;2023-03-16T08:12:52;100725.50;;;11.30;36.08
67013;BME280;53926;47.406;19.188;2023-03-16T08:15:19;100723.72;;;10.90;37.13
67013;BME280;53926;47.406;19.188;2023-03-16T08:17:47;100727.53;;;10.81;34.50
67013;BME280;53926;47.406;19.188;2023-03-16T08:20:14;100724.50;;;10.84;36.10
67013;BME280;53926;47.406;19.188;2023-03-16T08:22:41;100731.94;;;11.27;35.51
67013;BME280;53926;47.406;19.188;2023-03-16T08:25:12;100736.16;;;11.42;33.44
67013;BME280;53926;47.406;19.188;2023-03-16T08:27:42;100731.72;;;11.22;35.89
67013;BME280;53926;47.406;19.188;2023-03-16T08:30:10;100738.75;;;12.27;32.71
67013;BME280;53926;47.406;19.188;2023-03-16T08:32:38;100730.59;;;12.10;32.90
67013;BME280;53926;47.406;19.188;2023-03-16T08:35:11;100741.94;;;12.36;32.76
67013;BME280;53926;47.406;19.188;2023-03-16T08:37:42;100741.97;;;11.24;35.38
67013;BME280;53926;47.406;19.188;2023-03-16T08:40:10;100746.34;;;11.70;34.78
67013;BME280;53926;47.406;19.188;2023-03-16T08:42:42;100740.78;;;12.25;32.86
67013;BME280;53926;47.406;19.188;2023-03-16T08:45:10;100745.37;;;12.30;33.10
67013;BME280;53926;47.406;19.188;2023-03-16T08:47:39;100743.84;;;12.61;32.33
67013;BME280;53926;47.406;19.188;2023-03-16T08:50:07;100745.09;;;12.06;32.61
67013;BME280;53926;47.406;19.188;2023-03-16T08:52:35;100737.91;;;12.40;33.13
67013;BME280;53926;47.406;19.188;2023-03-16T08:55:03;100740.50;;;13.36;31.62
67013;BME280;53926;47.406;19.188;2023-03-16T08:57:32;100741.22;;;13.18;31.51
67013;BME280;53926;47.406;19.188;2023-03-16T08:59:59;100745.87;;;13.66;31.28
67013;BME280;53926;47.406;19.188;2023-03-16T09:02:27;100747.50;;;12.53;32.04
67013;BME280;53926;47.406;19.188;2023-03-16T09:04:54;100744.56;;;13.57;30.90
67013;BME280;53926;47.406;19.188;2023-03-16T09:07:21;100728.41;;;14.16;30.62
67013;BME280;53926;47.406;19.188;2023-03-16T09:09:48;100737.16;;;13.72;29.70
67013;BME280;53926;47.406;19.188;2023-03-16T09:12:16;100736.22;;;14.04;31.09
67013;BME280;53926;47.406;19.188;2023-03-16T09:14:42;100750.44;;;13.52;29.53
67013;BME280;53926;47.406;19.188;2023-03-16T09:17:09;100748.50;;;12.84;30.75
67013;BME280;53926;47.406;19.188;2023-03-16T09:19:37;100740.94;;;14.44;29.02
67013;BME280;53926;47.406;19.188;2023-03-16T09:22:24;100746.06;;;14.39;29.50
67013;BME280;53926;47.406;19.188;2023-03-16T09:24:51;100745.94;;;13.59;30.97
67013;BME280;53926;47.406;19.188;2023-03-16T09:27:17;100761.09;;;14.62;29.69
67013;BME280;53926;47.406;19.188;2023-03-16T09:29:46;100755.50;;;13.91;30.20
67013;BME280;53926;47.406;19.188;2023-03-16T09:32:14;100758.50;;;14.43;28.21
67013;BME280;53926;47.406;19.188;2023-03-16T09:34:40;100753.97;;;13.39;29.07
67013;BME280;53926;47.406;19.188;2023-03-16T09:37:07;100747.50;;;14.83;27.42
67013;BME280;53926;47.406;19.188;2023-03-16T09:39:35;100759.50;;;14.42;29.59
67013;BME280;53926;47.406;19.188;2023-03-16T09:47:36;100753.25;;;16.56;25.67
67013;BME280;53926;47.406;19.188;2023-03-16T09:50:12;100762.37;;;15.37;26.22
67013;BME280;53926;47.406;19.188;2023-03-16T09:53:03;100763.91;;;13.93;27.96
67013;BME280;53926;47.406;19.188;2023-03-16T09:55:36;100763.06;;;15.91;26.06
67013;BME280;53926;47.406;19.188;2023-03-16T09:58:10;100766.00;;;15.00;28.30
67013;BME280;53926;47.406;19.188;2023-03-16T10:06:06;100771.50;;;15.94;23.64
67013;BME280;53926;47.406;19.188;2023-03-16T10:08:42;100777.78;;;14.79;26.97
67013;BME280;53926;47.406;19.188;2023-03-16T10:11:24;100776.66;;;14.26;28.65
67013;BME280;53926;47.406;19.188;2023-03-16T10:16:46;100776.19;;;14.48;28.33
67013;BME280;53926;47.406;19.188;2023-03-16T10:19:20;100772.63;;;13.87;27.13
67013;BME280;53926;47.406;19.188;2023-03-16T10:21:51;100775.03;;;16.40;26.86
67013;BME280;53926;47.406;19.188;2023-03-16T10:24:42;100778.06;;;15.01;25.40
67013;BME280;53926;47.406;19.188;2023-03-16T10:27:18;100777.03;;;16.78;23.51
67013;BME280;53926;47.406;19.188;2023-03-16T10:29:48;100778.50;;;14.87;25.45
67013;BME280;53926;47.406;19.188;2023-03-16T10:32:16;100789.84;;;15.23;24.89
67013;BME280;53926;47.406;19.188;2023-03-16T10:34:54;100784.69;;;14.62;25.51
67013;BME280;53926;47.406;19.188;2023-03-16T10:37:22;100778.69;;;15.74;25.69
67013;BME280;53926;47.406;19.188;2023-03-16T10:39:49;100785.94;;;17.40;21.83
67013;BME280;53926;47.406;19.188;2023-03-16T10:42:18;100780.66;;;15.44;23.27
67013;BME280;53926;47.406;19.188;2023-03-16T10:44:46;100782.09;;;17.48;21.86
67013;BME280;53926;47.406;19.188;2023-03-16T10:47:23;100778.12;;;14.53;24.24
67013;BME280;53926;47.406;19.188;2023-03-16T10:49:50;100776.19;;;15.44;24.97
67013;BME280;53926;47.406;19.188;2023-03-16T10:52:39;100774.12;;;14.69;25.32
67013;BME280;53926;47.406;19.188;2023-03-16T10:55:18;100781.88;;;13.14;28.64
67013;BME280;53926;47.406;19.188;2023-03-16T10:57:51;100783.38;;;14.83;24.18
67013;BME280;53926;47.406;19.188;2023-03-16T11:00:27;100772.94;;;16.13;23.48
67013;BME280;53926;47.406;19.188;2023-03-16T11:02:55;100782.31;;;14.42;24.86
67013;BME280;53926;47.406;19.188;2023-03-16T11:05:32;100776.66;;;14.26;25.69
67013;BME280;53926;47.406;19.188;2023-03-16T11:08:19;100773.28;;;14.98;25.36
67013;BME280;53926;47.406;19.188;2023-03-16T11:11:08;100778.94;;;15.61;24.98
67013;BME280;53926;47.406;19.188;2023-03-16T11:13:43;100777.75;;;16.74;24.43
67013;BME280;53926;47.406;19.188;2023-03-16T11:16:45;100768.06;;;14.01;26.29
67013;BME280;53926;47.406;19.188;2023-03-16T11:19:23;100770.38;;;14.09;24.86
67013;BME280;53926;47.406;19.188;2023-03-16T11:24:49;100766.50;;;16.90;21.79
67013;BME280;53926;47.406;19.188;2023-03-16T11:27:25;100763.75;;;15.99;23.34
67013;BME280;53926;47.406;19.188;2023-03-16T11:30:01;100763.66;;;16.80;22.23
67013;BME280;53926;47.406;19.188;2023-03-16T11:32:36;100770.81;;;15.98;23.79
67013;BME280;53926;47.406;19.188;2023-03-16T11:38:19;100762.00;;;17.25;21.62
67013;BME280;53926;47.406;19.188;2023-03-16T11:40:49;100750.81;;;13.56;24.79
67013;BME280;53926;47.406;19.188;2023-03-16T11:46:11;100759.53;;;15.38;22.29
67013;BME280;53926;47.406;19.188;2023-03-16T11:48:43;100752.78;;;15.43;22.46
67013;BME280;53926;47.406;19.188;2023-03-16T11:56:56;100750.59;;;15.75;22.44
67013;BME280;53926;47.406;19.188;2023-03-16T12:04:42;100752.44;;;15.15;23.29
67013;BME280;53926;47.406;19.188;2023-03-16T12:10:19;100754.72;;;14.39;23.57
67013;BME280;53926;47.406;19.188;2023-03-16T12:15:51;100724.94;;;14.03;24.88
67013;BME280;53926;47.406;19.188;2023-03-16T12:18:32;100740.84;;;13.46;24.54
67013;BME280;53926;47.406;19.188;2023-03-16T12:21:13;100741.78;;;14.26;23.14
67013;BME280;53926;47.406;19.188;2023-03-16T12:23:52;100736.44;;;14.02;23.01
67013;BME280;53926;47.406;19.188;2023-03-16T12:26:23;100739.91;;;15.17;23.78
67013;BME280;53926;47.406;19.188;2023-03-16T12:28:53;100739.13;;;14.14;22.75
67013;BME280;53926;47.406;19.188;2023-03-16T12:31:46;100739.84;;;14.52;21.97
67013;BME280;53926;47.406;19.188;2023-03-16T12:34:24;100740.00;;;14.38;22.25
67013;BME280;53926;47.406;19.188;2023-03-16T12:45:03;100726.72;;;14.52;22.26
67013;BME280;53926;47.406;19.188;2023-03-16T12:50:09;100724.31;;;13.46;19.96
67013;BME280;53926;47.406;19.188;2023-03-16T12:52:47;100729.00;;;13.81;19.88
67013;BME280;53926;47.406;19.188;2023-03-16T12:58:03;100723.16;;;14.34;20.08
67013;BME280;53926;47.406;19.188;2023-03-16T13:00:33;100733.91;;;14.75;20.91
67013;BME280;53926;47.406;19.188;2023-03-16T13:03:02;100733.50;;;13.92;20.68
67013;BME280;53926;47.406;19.188;2023-03-16T13:05:33;100733.28;;;14.12;20.03
67013;BME280;53926;47.406;19.188;2023-03-16T13:08:09;100733.66;;;14.16;19.79
67013;BME280;53926;47.406;19.188;2023-03-16T13:10:37;100742.13;;;12.41;23.25
67013;BME280;53926;47.406;19.188;2023-03-16T13:13:09;100740.34;;;10.96;23.78
67013;BME280;53926;47.406;19.188;2023-03-16T13:15:36;100738.44;;;10.50;23.06
67013;BME280;53926;47.406;19.188;2023-03-16T13:26:10;100730.09;;;13.29;21.22
67013;BME280;53926;47.406;19.188;2023-03-16T13:28:40;100720.81;;;13.33;19.54
67013;BME280;53926;47.406;19.188;2023-03-16T13:31:27;100723.72;;;14.36;19.74
67013;BME280;53926;47.406;19.188;2023-03-16T13:33:59;100733.91;;;13.77;19.03
67013;BME280;53926;47.406;19.188;2023-03-16T13:36:27;100722.91;;;13.87;19.64
67013;BME280;53926;47.406;19.188;2023-03-16T13:41:37;100720.81;;;13.77;20.43
67013;BME280;53926;47.406;19.188;2023-03-16T13:44:04;100720.25;;;12.99;21.32
67013;BME280;53926;47.406;19.188;2023-03-16T13:46:30;100716.34;;;13.40;19.31
67013;BME280;53926;47.406;19.188;2023-03-16T13:49:00;100711.78;;;13.54;19.33
67013;BME280;53926;47.406;19.188;2023-03-16T13:51:28;100713.91;;;13.14;20.58
67013;BME280;53926;47.406;19.188;2023-03-16T13:53:56;100715.78;;;13.06;20.62
67013;BME280;53926;47.406;19.188;2023-03-16T13:56:25;100727.41;;;13.11;21.90
67013;BME280;53926;47.406;19.188;2023-03-16T13:58:56;100722.56;;;12.50;21.53
67013;BME280;53926;47.406;19.188;2023-03-16T14:01:27;100719.84;;;13.02;20.32